This is the latest recevied weather packets stored in our database for station/object DH0DM-13. If no packets are shown the sender has not sent any weather packets the latest 10 day(s).
| Time | Temp. | Humidity | Pressure | Rain* | Wind** | Luminosity | Snow |
|---|---|---|---|---|---|---|---|
| 1777736841 | 25.56° C | 20% | 992.2 hPa | 0 mm | 2.68 m/s, 98° | - | - |
| 1777736240 | 25.56° C | 21% | 992.1 hPa | 0 mm | 1.79 m/s, 72° | - | - |
| 1777735639 | 26.11° C | 20% | 992.2 hPa | 0 mm | 7.6 m/s, 81° | - | - |
| 1777735039 | 26.11° C | 20% | 992.5 hPa | 0 mm | 3.58 m/s, 80° | - | - |
| 1777734437 | 26.11° C | 20% | 992.7 hPa | 0 mm | 4.02 m/s, 68° | - | - |
| 1777733837 | 26.11° C | 19% | 992.7 hPa | 0 mm | 6.71 m/s, 87° | - | - |
| 1777733236 | 26.11° C | 22% | 992.8 hPa | 0 mm | 4.47 m/s, 101° | - | - |
| 1777732635 | 26.11° C | 23% | 992.8 hPa | 0 mm | 4.47 m/s, 217° | - | - |
| 1777732034 | 26.11° C | 22% | 993 hPa | 0 mm | 4.47 m/s, 203° | - | - |
| 1777731433 | 26.11° C | 22% | 993.2 hPa | 0 mm | 3.58 m/s, 204° | - | - |
| 1777730832 | 26.11° C | 22% | 993.2 hPa | 0 mm | 2.24 m/s, 113° | - | - |
| 1777730232 | 25.56° C | 22% | 993.3 hPa | 0 mm | 5.81 m/s, 233° | - | - |
| 1777729631 | 25.56° C | 22% | 993.6 hPa | 0 mm | 3.58 m/s, 169° | - | - |
| 1777729030 | 25.56° C | 21% | 993.6 hPa | 0 mm | 5.81 m/s, 228° | - | - |
| 1777728429 | 26.11° C | 19% | 993.8 hPa | 0 mm | 3.58 m/s, 264° | - | - |
| 1777727828 | 25.56° C | 18% | 994.2 hPa | 0 mm | 4.92 m/s, 229° | - | - |
| 1777727227 | 25.56° C | 23% | 994.2 hPa | 0 mm | 5.36 m/s, 196° | - | - |
| 1777726626 | 25.56° C | 21% | 994.2 hPa | 0 mm | 1.34 m/s, 132° | - | - |
| 1777726025 | 25° C | 24% | 994.3 hPa | 0 mm | 5.36 m/s, 171° | - | - |
| 1777725424 | 25° C | 23% | 994.6 hPa | 0 mm | 10.28 m/s, 251° | - | - |
| 1777724823 | 25° C | 25% | 994.6 hPa | 0 mm | 2.68 m/s, 81° | - | - |
| 1777724222 | 24.44° C | 26% | 994.8 hPa | 0 mm | 0.45 m/s, 89° | - | - |
| 1777723621 | 24.44° C | 25% | 995 hPa | 0 mm | 5.36 m/s, 150° | - | - |
| 1777723020 | 23.89° C | 26% | 995.2 hPa | 0 mm | 4.02 m/s, 166° | - | - |
| 1777722419 | 24.44° C | 28% | 995.2 hPa | 0 mm | 2.68 m/s, 198° | - | - |
* Rain since midnight (hover to see other rain measurements)
** Current wind speed in m/s (hover to see current wind gust speed)